Latest Weather Observations for South Channel Island

IDV60801

Issued at 6:32 pm EST Sunday 24 September 2017 (issued every 30 minutes, with the page automatically refreshed every 10 minutes)

About weather observations | Map of weather stations | Latest weather observations for VIC | Other Formats
Station Details ID: 086344 Name: SOUTH CHANNEL ISLAND Lat: -38.31 Lon: 144.80 Height: 9.0 m
Data from the previous 72 hours. | See also: Recent months for locations in Victoria
Date/Time
EST
Temp
°C
App
Temp
°C
Dew
Point
°C
Rel
Hum
%
Delta-T
°C
Wind Press
QNH
hPa
Press
MSL
hPa
Rain since
9am
mm
Dir  Spd
km/h
Gust
km/h
Spd
kts
Gust
kts
24/06:30pm - - - - - NW 30 48 16 26 - - -
24/06:28pm - - - - - NW 28 48 15 26 - - -
24/06:00pm - - - - - WNW 32 39 17 21 - - -
24/05:30pm - - - - - WNW 50 59 27 32 - - -
24/05:17pm - - - - - WNW 50 69 27 37 - - -
24/05:00pm - - - - - NW 32 44 17 24 - - -
24/04:30pm - - - - - NW 39 48 21 26 - - -
24/04:00pm - - - - - NW 41 78 22 42 - - -
24/03:58pm - - - - - NW 37 56 20 30 - - -
24/03:30pm - - - - - NW 46 61 25 33 - - -
24/03:12pm - - - - - NW 41 61 22 33 - - -
24/03:00pm - - - - - NW 37 46 20 25 - - -
24/02:30pm - - - - - NNW 32 39 17 21 - - -
24/02:00pm - - - - - NW 37 48 20 26 - - -
24/01:30pm - - - - - NW 35 43 19 23 - - -
24/01:00pm - - - - - NW 44 50 24 27 - - -
24/12:30pm - - - - - NW 41 56 22 30 - - -
24/12:00pm - - - - - NW 39 48 21 26 - - -
24/11:39am - - - - - NW 39 57 21 31 - - -
24/11:30am - - - - - NW 44 52 24 28 - - -
24/11:00am - - - - - NW 43 50 23 27 - - -
24/10:30am - - - - - NW 43 54 23 29 - - -
24/10:13am - - - - - NW 50 69 27 37 - - -
24/10:00am - - - - - NW 44 54 24 29 - - -
24/09:30am - - - - - NW 48 57 26 31 - - -
24/09:00am - - - - - NNW 41 52 22 28 - - -
24/08:30am - - - - - NW 43 50 23 27 - - -
24/08:00am - - - - - NW 39 46 21 25 - - -
24/07:30am - - - - - WNW 52 61 28 33 - - -
24/07:05am - - - - - NNW 41 63 22 34 - - -
24/07:04am - - - - - N 39 57 21 31 - - -
24/07:00am - - - - - N 37 44 20 24 - - -
24/06:30am - - - - - N 39 46 21 25 - - -
24/06:00am - - - - - N 37 43 20 23 - - -
24/05:30am - - - - - N 32 41 17 22 - - -
24/05:00am - - - - - N 20 28 11 15 - - -
24/04:30am - - - - - NW 13 20 7 11 - - -
24/04:00am - - - - - WNW 19 28 10 15 - - -
24/03:30am - - - - - WNW 37 52 20 28 - - -
24/03:00am - - - - - NW 48 59 26 32 - - -
24/02:30am - - - - - NW 52 63 28 34 - - -
24/02:00am - - - - - WNW 54 63 29 34 - - -
24/01:30am - - - - - WNW 54 63 29 34 - - -
24/01:00am - - - - - WNW 48 57 26 31 - - -
24/12:30am - - - - - WNW 44 52 24 28 - - -
24/12:00am - - - - - WNW 48 57 26 31 - - -
 
Date/Time
EST
Temp
°C
App
Temp
°C
Dew
Point
°C
Rel
Hum
%
Delta-T
°C
Wind Press
QNH
hPa
Press
MSL
hPa
Rain since
9am
mm
Dir  Spd
km/h
Gust
km/h
Spd
kts
Gust
kts
23/11:30pm - - - - - W 48 57 26 31 - - -
23/11:00pm - - - - - W 41 50 22 27 - - -
23/10:30pm - - - - - WNW 41 50 22 27 - - -
23/10:00pm - - - - - WNW 39 50 21 27 - - -
23/09:30pm - - - - - WNW 41 52 22 28 - - -
23/09:20pm - - - - - WNW 39 50 21 27 - - -
23/09:00pm - - - - - W 24 32 13 17 - - -
23/08:30pm - - - - - NW 9 15 5 8 - - -
23/08:00pm - - - - - WNW 13 20 7 11 - - -
23/07:30pm - - - - - W 22 30 12 16 - - -
23/07:00pm - - - - - WSW 32 39 17 21 - - -
23/06:30pm - - - - - WSW 37 46 20 25 - - -
23/06:00pm - - - - - SW 46 56 25 30 - - -
23/05:30pm - - - - - SW 56 69 30 37 - - -
23/05:06pm - - - - - SW 61 80 33 43 - - -
23/05:00pm - - - - - SW 67 80 36 43 - - -
23/04:48pm - - - - - SW 57 87 31 47 - - -
23/04:30pm - - - - - SW 61 74 33 40 - - -
23/04:18pm - - - - - SW 46 69 25 37 - - -
23/04:00pm - - - - - SW 37 46 20 25 - - -
23/03:30pm - - - - - SW 32 33 17 18 - - -
23/03:00pm - - - - - WNW 22 26 12 14 - - -
23/02:30pm - - - - - WNW 19 22 10 12 - - -
23/02:00pm - - - - - N 13 15 7 8 - - -
23/01:30pm - - - - - ENE 15 19 8 10 - - -
23/01:00pm - - - - - E 17 19 9 10 - - -
23/12:30pm - - - - - SSE 22 32 12 17 - - -
23/12:00pm - - - - - S 32 35 17 19 - - -
23/11:30am - - - - - S 28 33 15 18 - - -
23/11:00am - - - - - SSW 41 56 22 30 - - -
23/10:47am - - - - - SW 33 52 18 28 - - -
23/10:45am - - - - - SW 30 41 16 22 - - -
23/10:30am - - - - - WSW 17 20 9 11 - - -
23/10:00am - - - - - NNW 11 15 6 8 - - -
23/09:30am - - - - - NW 17 19 9 10 - - -
23/09:00am - - - - - NNW 15 19 8 10 - - -
23/08:30am - - - - - NW 32 39 17 21 - - -
23/08:17am - - - - - NW 30 41 16 22 - - -
23/08:00am - - - - - W 32 50 17 27 - - -
23/07:53am - - - - - WSW 24 48 13 26 - - -
23/07:30am - - - - - NNW 11 15 6 8 - - -
23/07:00am - - - - - N 24 28 13 15 - - -
23/06:30am - - - - - NNE 22 30 12 16 - - -
23/06:00am - - - - - NE 26 32 14 17 - - -
23/05:30am - - - - - NNE 39 41 21 22 - - -
23/05:00am - - - - - NE 28 35 15 19 - - -
23/04:30am - - - - - ENE 19 26 10 14 - - -
23/04:00am - - - - - ENE 24 28 13 15 - - -
23/03:30am - - - - - NE 28 30 15 16 - - -
23/03:00am - - - - - NE 30 33 16 18 - - -
23/02:30am - - - - - NE 26 30 14 16 - - -
23/02:00am - - - - - NE 26 28 14 15 - - -
23/01:30am - - - - - ENE 28 30 15 16 - - -
23/01:00am - - - - - NE 28 30 15 16 - - -
23/12:30am - - - - - NNE 26 28 14 15 - - -
23/12:00am - - - - - NNE 15 19 8 10 - - -
 
Date/Time
EST
Temp
°C
App
Temp
°C
Dew
Point
°C
Rel
Hum
%
Delta-T
°C
Wind Press
QNH
hPa
Press
MSL
hPa
Rain since
9am
mm
Dir  Spd
km/h
Gust
km/h
Spd
kts
Gust
kts
22/11:30pm - - - - - NNE 15 17 8 9 - - -
22/11:00pm - - - - - NNE 15 17 8 9 - - -
22/10:30pm - - - - - NNE 22 30 12 16 - - -
22/10:00pm - - - - - NNE 28 30 15 16 - - -
22/09:30pm - - - - - N 30 32 16 17 - - -
22/09:00pm - - - - - N 19 22 10 12 - - -
22/08:30pm - - - - - N 20 28 11 15 - - -
22/08:00pm - - - - - NNE 24 26 13 14 - - -
22/07:30pm - - - - - NE 19 20 10 11 - - -
22/07:00pm - - - - - NE 19 24 10 13 - - -
22/06:30pm - - - - - ENE 19 26 10 14 - - -
22/06:00pm - - - - - NE 22 26 12 14 - - -
22/05:30pm - - - - - ENE 24 26 13 14 - - -
22/05:00pm - - - - - E 13 15 7 8 - - -
22/04:30pm - - - - - ESE 7 11 4 6 - - -
22/04:00pm - - - - - S 9 11 5 6 - - -
22/03:30pm - - - - - SSW 15 17 8 9 - - -
22/03:00pm - - - - - SSW 17 20 9 11 - - -
22/02:30pm - - - - - S 13 15 7 8 - - -
22/02:00pm - - - - - SE 9 13 5 7 - - -
22/01:30pm - - - - - SSE 7 9 4 5 - - -
22/01:00pm - - - - - ESE 6 7 3 4 - - -
22/12:30pm - - - - - E 6 7 3 4 - - -
22/12:00pm - - - - - ENE 7 11 4 6 - - -
22/11:30am - - - - - NE 17 17 9 9 - - -
22/11:00am - - - - - NE 13 15 7 8 - - -
22/10:30am - - - - - NE 11 15 6 8 - - -
22/10:00am - - - - - NE 11 13 6 7 - - -
22/09:30am - - - - - NE 13 13 7 7 - - -
22/09:00am - - - - - ENE 17 19 9 10 - - -
22/08:30am - - - - - ENE 17 19 9 10 - - -
22/08:00am - - - - - ENE 15 17 8 9 - - -
22/07:30am - - - - - ENE 13 17 7 9 - - -
22/07:00am - - - - - ESE 13 15 7 8 - - -
22/06:30am - - - - - E 11 13 6 7 - - -
22/06:00am - - - - - NE 11 13 6 7 - - -
22/05:30am - - - - - ENE 9 9 5 5 - - -
22/05:00am - - - - - ENE 9 11 5 6 - - -
22/04:30am - - - - - NE 9 11 5 6 - - -
22/04:00am - - - - - NE 9 9 5 5 - - -
22/03:30am - - - - - NE 7 9 4 5 - - -
22/03:00am - - - - - NE 9 11 5 6 - - -
22/02:30am - - - - - NNE 7 9 4 5 - - -
22/02:00am - - - - - N 9 9 5 5 - - -
22/01:30am - - - - - N 6 6 3 3 - - -
22/01:00am - - - - - N 9 9 5 5 - - -
22/12:30am - - - - - SW 2 7 1 4 - - -
22/12:00am - - - - - S 9 11 5 6 - - -
 
Date/Time
EST
Temp
°C
App
Temp
°C
Dew
Point
°C
Rel
Hum
%
Delta-T
°C
Wind Press
QNH
hPa
Press
MSL
hPa
Rain since
9am
mm
Dir  Spd
km/h
Gust
km/h
Spd
kts
Gust
kts
21/11:30pm - - - - - S 9 11 5 6 - - -
21/11:00pm - - - - - S 13 15 7 8 - - -
21/10:30pm - - - - - SSW 15 17 8 9 - - -
21/10:00pm - - - - - SSW 15 17 8 9 - - -
21/09:30pm - - - - - SSW 19 20 10 11 - - -
21/09:00pm - - - - - SSW 19 24 10 13 - - -
21/08:30pm - - - - - S 15 19 8 10 - - -
21/08:00pm - - - - - S 15 17 8 9 - - -
21/07:30pm - - - - - S 17 22 9 12 - - -
21/07:00pm - - - - - S 22 28 12 15 - - -

Other Formats:

Comma delimited format used in spreadsheet applications
http://www.bom.gov.au/fwo/IDV60801/IDV60801.94853.axf

JavaScript Object Notation format (JSON) in row-major order
http://www.bom.gov.au/fwo/IDV60801/IDV60801.94853.json